Terminal Aerodrome Forecast
Issued by NWS

Home | Current Version | Previous Version | Text Only | Print | Product List | Glossary On
Versions: 1 2 3 4 5 6 7 8 9 10 11 12 13 14 15 16 17
000
FTUS46 KMTR 211100
TAFSTS
TAF
KSTS 211130Z 2112/2212 VRB03KT P6SM OVC008
     FM211600 VRB03KT P6SM OVC015
     FM212000 19008KT P6SM SKC
     FM220200 16005KT P6SM SKC
     FM220700 VRB03KT P6SM OVC008=

USA.gov is the U.S. government's official web portal to all federal, state and local government web resources and services.